createdAt,value
2017-08-26T07:22:39.485Z,7920.00
2017-08-26T07:22:40.063Z,7920.00
2017-08-26T07:22:40.652Z,7920.00
2017-08-26T07:22:41.255Z,7920.00
2017-08-26T07:22:41.852Z,7916.00
2017-08-26T07:22:42.455Z,7916.00
2017-08-26T07:22:43.051Z,7916.00
2017-08-26T07:23:57.189Z,7760.00
2017-08-26T07:23:57.721Z,7760.00
2017-08-26T07:23:58.332Z,7756.00
2017-08-26T07:23:58.952Z,7756.00
2017-08-26T07:23:59.627Z,7756.00
2017-08-26T07:24:00.144Z,7752.00
2017-08-26T07:24:00.750Z,7748.00
2017-08-26T07:24:55.594Z,7720.00
2017-08-26T07:24:56.196Z,7720.00
2017-08-26T07:24:56.788Z,7724.00
2017-08-26T07:24:57.391Z,7724.00
2017-08-26T07:24:57.986Z,7728.00
2017-08-26T07:24:58.586Z,7728.00
2017-08-26T07:24:59.190Z,7728.00
2017-08-26T07:25:53.247Z,7804.00
2017-08-26T07:25:53.840Z,7804.00
2017-08-26T07:25:54.444Z,7800.00
2017-08-26T07:25:55.066Z,7804.00
2017-08-26T07:25:55.642Z,7804.00
2017-08-26T07:25:56.243Z,7804.00
2017-08-26T07:25:56.851Z,7804.00
2017-08-26T07:26:50.392Z,7852.00
2017-08-26T07:26:51.004Z,7856.00
2017-08-26T07:26:51.630Z,7856.00
2017-08-26T07:26:52.186Z,7860.00
2017-08-26T07:26:52.779Z,7856.00
2017-08-26T07:26:53.377Z,7856.00
2017-08-26T07:26:53.985Z,7860.00
2017-08-26T07:26:54.577Z,7860.00
2017-08-26T07:27:48.675Z,7888.00
2017-08-26T07:27:49.255Z,7888.00
2017-08-26T07:27:49.847Z,7888.00
2017-08-26T07:27:50.450Z,7888.00
2017-08-26T07:27:51.047Z,7884.00
2017-08-26T07:27:51.651Z,7884.00
2017-08-26T07:27:52.250Z,7888.00
2017-08-26T07:28:47.327Z,7632.00
2017-08-26T07:28:47.924Z,7636.00
2017-08-26T07:28:48.523Z,7632.00
2017-08-26T07:28:49.125Z,7632.00
2017-08-26T07:28:49.724Z,7616.00
2017-08-26T07:28:50.321Z,7612.00
2017-08-26T07:29:45.454Z,7856.00
2017-08-26T07:29:45.908Z,7852.00
2017-08-26T07:29:46.505Z,7856.00
2017-08-26T07:29:47.085Z,7852.00
2017-08-26T07:29:47.677Z,7856.00
2017-08-26T07:29:48.261Z,7856.00
2017-08-26T07:29:48.897Z,7852.00
2017-08-26T07:30:43.413Z,7924.00
2017-08-26T07:30:43.947Z,7928.00
2017-08-26T07:30:44.574Z,7928.00
2017-08-26T07:30:45.163Z,7932.00
2017-08-26T07:30:45.742Z,7932.00
2017-08-26T07:30:46.343Z,7932.00
2017-08-26T07:30:46.942Z,7932.00
2017-08-26T07:31:40.999Z,7988.00
2017-08-26T07:31:41.598Z,7988.00
2017-08-26T07:31:42.195Z,7992.00
2017-08-26T07:31:42.796Z,7992.00
2017-08-26T07:31:43.391Z,7992.00
2017-08-26T07:31:43.994Z,7992.00
2017-08-26T07:31:44.597Z,7992.00
2017-08-26T07:32:40.528Z,8028.00
2017-08-26T07:32:41.090Z,8032.00
2017-08-26T07:32:41.694Z,8032.00
2017-08-26T07:32:42.290Z,8032.00
2017-08-26T07:32:42.890Z,8036.00
2017-08-26T07:32:43.484Z,8032.00
2017-08-26T07:33:38.967Z,8020.00
2017-08-26T07:33:39.565Z,8024.00
2017-08-26T07:33:40.164Z,8024.00
2017-08-26T07:33:40.767Z,8020.00
2017-08-26T07:33:41.366Z,8024.00
2017-08-26T07:33:41.962Z,8020.00
2017-08-26T07:34:36.511Z,7868.00
2017-08-26T07:34:37.172Z,7912.00
2017-08-26T07:34:37.717Z,7916.00
2017-08-26T07:34:38.324Z,7916.00
2017-08-26T07:34:38.909Z,7920.00
2017-08-26T07:34:39.511Z,7920.00
2017-08-26T07:34:40.110Z,7920.00
2017-08-26T07:35:34.162Z,7648.00
2017-08-26T07:35:34.761Z,7660.00
2017-08-26T07:35:35.366Z,7700.00
2017-08-26T07:35:35.965Z,7652.00
2017-08-26T07:35:36.563Z,7684.00
2017-08-26T07:35:37.169Z,7732.00
2017-08-26T07:35:37.762Z,7672.00
2017-08-26T07:36:32.743Z,6092.00
2017-08-26T07:36:33.339Z,7124.00
2017-08-26T07:36:33.939Z,7764.00
2017-08-26T07:36:34.539Z,7760.00
2017-08-26T07:36:35.135Z,7764.00
2017-08-26T07:36:35.730Z,7760.00
2017-08-26T07:37:30.291Z,7360.00
2017-08-26T07:37:30.888Z,7492.00
2017-08-26T07:37:31.483Z,7400.00
2017-08-26T07:37:32.088Z,7500.00
2017-08-26T07:37:32.688Z,7532.00
2017-08-26T07:37:33.283Z,7572.00
2017-08-26T07:37:33.886Z,7600.00
2017-08-26T07:38:27.984Z,7660.00
2017-08-26T07:38:28.542Z,7656.00
2017-08-26T07:38:29.136Z,7660.00
2017-08-26T07:38:29.736Z,7656.00
2017-08-26T07:38:30.334Z,7656.00
2017-08-26T07:38:30.934Z,7656.00
2017-08-26T07:38:31.539Z,7660.00
2017-08-26T07:39:25.596Z,7612.00
2017-08-26T07:39:26.188Z,7616.00
2017-08-26T07:39:26.784Z,7616.00
2017-08-26T07:39:27.384Z,7588.00
2017-08-26T07:39:27.987Z,7604.00
2017-08-26T07:39:28.585Z,7592.00
2017-08-26T07:39:29.187Z,7612.00
2017-08-26T07:40:23.240Z,7212.00
2017-08-26T07:40:23.837Z,7488.00
2017-08-26T07:40:24.442Z,7508.00
2017-08-26T07:40:25.046Z,7520.00
2017-08-26T07:40:25.644Z,7520.00
2017-08-26T07:40:26.243Z,7516.00
2017-08-26T07:40:26.842Z,7516.00
2017-08-26T07:41:20.896Z,7404.00
2017-08-26T07:41:21.487Z,7404.00
2017-08-26T07:41:22.091Z,7404.00
2017-08-26T07:41:22.692Z,7400.00
2017-08-26T07:41:23.294Z,7404.00
2017-08-26T07:41:23.895Z,7400.00
2017-08-26T07:41:24.491Z,7400.00
2017-08-26T07:42:18.544Z,7152.00
2017-08-26T07:42:19.144Z,7160.00
2017-08-26T07:42:19.743Z,7148.00
2017-08-26T07:42:20.340Z,7152.00
2017-08-26T07:42:20.941Z,7148.00
2017-08-26T07:42:21.542Z,7144.00
2017-08-26T07:42:22.146Z,7144.00
2017-08-26T07:43:16.203Z,7232.00
2017-08-26T07:43:16.794Z,7236.00
2017-08-26T07:43:17.391Z,7236.00
2017-08-26T07:43:18.007Z,7240.00
2017-08-26T07:43:18.598Z,7240.00
2017-08-26T07:43:19.198Z,7240.00
2017-08-26T07:43:19.795Z,7240.00
2017-08-26T07:44:13.884Z,7252.00
2017-08-26T07:44:14.451Z,7260.00
2017-08-26T07:44:15.048Z,7272.00
2017-08-26T07:44:15.650Z,7264.00
2017-08-26T07:44:16.250Z,7268.00
2017-08-26T07:44:16.849Z,7272.00
2017-08-26T07:44:17.450Z,7292.00
2017-08-26T07:45:11.501Z,7304.00
2017-08-26T07:45:12.096Z,7224.00
2017-08-26T07:45:12.697Z,7244.00
2017-08-26T07:45:13.295Z,7320.00
2017-08-26T07:45:13.899Z,7304.00
2017-08-26T07:45:14.496Z,7248.00
2017-08-26T07:45:15.102Z,7236.00
2017-08-26T07:46:09.153Z,7456.00
2017-08-26T07:46:09.751Z,7452.00
2017-08-26T07:46:10.353Z,7448.00
2017-08-26T07:46:10.954Z,7452.00
2017-08-26T07:46:11.550Z,7448.00
2017-08-26T07:46:12.149Z,7456.00
2017-08-26T07:46:12.757Z,7452.00
2017-08-26T07:47:06.802Z,7524.00
2017-08-26T07:47:07.400Z,7528.00
2017-08-26T07:47:08.002Z,7528.00
2017-08-26T07:47:08.601Z,7532.00
2017-08-26T07:47:09.205Z,7528.00
2017-08-26T07:47:09.804Z,7532.00
2017-08-26T07:47:10.409Z,7532.00
2017-08-26T08:04:35.516Z,7648.00
2017-08-26T08:04:36.086Z,7648.00
2017-08-26T08:04:36.683Z,7648.00
2017-08-26T08:04:37.283Z,7648.00
2017-08-26T08:04:37.882Z,7648.00
2017-08-26T08:04:38.482Z,7644.00
2017-08-26T08:04:39.082Z,7648.00
2017-08-26T08:05:33.138Z,7660.00
2017-08-26T08:05:33.731Z,7660.00
2017-08-26T08:05:34.337Z,7656.00
2017-08-26T08:05:34.932Z,7660.00
2017-08-26T08:05:35.529Z,7656.00
2017-08-26T08:05:36.131Z,7660.00
2017-08-26T08:05:36.738Z,7660.00
2017-08-26T08:06:30.795Z,7624.00
2017-08-26T08:06:31.387Z,7624.00
2017-08-26T08:06:31.985Z,7624.00
2017-08-26T08:06:32.582Z,7624.00
2017-08-26T08:06:33.183Z,7620.00
2017-08-26T08:06:33.786Z,7624.00
2017-08-26T08:06:34.386Z,7624.00
2017-08-26T08:07:28.446Z,7612.00
2017-08-26T08:07:29.042Z,7616.00
2017-08-26T08:07:29.638Z,7612.00
2017-08-26T08:07:30.239Z,7616.00
2017-08-26T08:07:30.841Z,7612.00
2017-08-26T08:07:31.438Z,7616.00
2017-08-26T08:07:32.038Z,7612.00
2017-08-26T08:08:26.094Z,7684.00
2017-08-26T08:08:26.695Z,7684.00
2017-08-26T08:08:27.290Z,7688.00
2017-08-26T08:08:27.890Z,7684.00
2017-08-26T08:08:28.488Z,7684.00
2017-08-26T08:08:29.088Z,7688.00
2017-08-26T08:08:29.690Z,7688.00
2017-08-26T08:09:23.748Z,7656.00
2017-08-26T08:09:24.343Z,7656.00
2017-08-26T08:09:24.941Z,7652.00
2017-08-26T08:09:25.542Z,7652.00
2017-08-26T08:09:26.142Z,7652.00
2017-08-26T08:09:26.737Z,7656.00
2017-08-26T08:09:27.337Z,7652.00
2017-08-26T08:10:22.344Z,7604.00
2017-08-26T08:10:22.918Z,7608.00
2017-08-26T08:10:23.521Z,7608.00
2017-08-26T08:10:24.119Z,7608.00
2017-08-26T08:10:24.715Z,7608.00
2017-08-26T08:10:25.321Z,7604.00
2017-08-26T08:11:19.872Z,7604.00
2017-08-26T08:11:20.466Z,7604.00
2017-08-26T08:11:21.062Z,7600.00
2017-08-26T08:11:21.664Z,7604.00
2017-08-26T08:11:22.266Z,7604.00
2017-08-26T08:11:22.862Z,7600.00
2017-08-26T08:11:23.463Z,7604.00
2017-08-26T08:12:18.014Z,7616.00
2017-08-26T08:12:18.522Z,7620.00
2017-08-26T08:12:19.121Z,7616.00
2017-08-26T08:12:19.722Z,7616.00
2017-08-26T08:12:20.320Z,7616.00
2017-08-26T08:12:20.921Z,7616.00
2017-08-26T08:12:21.517Z,7616.00
2017-08-26T08:13:16.095Z,7608.00
2017-08-26T08:13:16.688Z,7604.00
2017-08-26T08:13:17.288Z,7604.00
2017-08-26T08:13:17.898Z,7604.00
2017-08-26T08:13:18.492Z,7608.00
2017-08-26T08:13:19.091Z,7604.00
2017-08-26T08:13:19.692Z,7604.00
2017-08-26T08:14:14.158Z,7592.00
2017-08-26T08:14:14.750Z,7592.00
2017-08-26T08:14:15.358Z,7592.00
2017-08-26T08:14:15.958Z,7592.00
2017-08-26T08:14:16.550Z,7592.00
2017-08-26T08:14:17.154Z,7596.00
2017-08-26T08:14:17.753Z,7596.00
2017-08-26T08:14:18.354Z,7592.00
2017-08-26T08:15:11.834Z,7632.00
2017-08-26T08:15:12.406Z,7628.00
2017-08-26T08:15:13.002Z,7632.00
2017-08-26T08:15:13.609Z,7632.00
2017-08-26T08:15:14.209Z,7636.00
2017-08-26T08:15:14.811Z,7636.00
2017-08-26T08:15:15.409Z,7636.00
2017-08-26T08:15:16.011Z,7636.00
2017-08-26T08:16:09.468Z,7728.00
2017-08-26T08:16:10.058Z,7728.00
2017-08-26T08:16:10.659Z,7728.00
2017-08-26T08:16:11.255Z,7728.00
2017-08-26T08:16:11.860Z,7732.00
2017-08-26T08:16:12.460Z,7728.00
2017-08-26T08:16:13.060Z,7728.00
2017-08-26T08:16:13.661Z,7732.00
2017-08-26T08:17:08.165Z,7756.00
2017-08-26T08:17:08.734Z,7752.00
2017-08-26T08:17:09.333Z,7752.00
2017-08-26T08:17:09.937Z,7756.00
2017-08-26T08:17:10.536Z,7752.00
2017-08-26T08:17:11.136Z,7756.00
2017-08-26T08:17:11.732Z,7752.00
2017-08-26T08:17:12.328Z,7756.00
2017-08-26T08:18:05.791Z,7716.00
2017-08-26T08:18:06.385Z,7716.00
2017-08-26T08:18:06.986Z,7712.00
2017-08-26T08:18:07.588Z,7712.00
2017-08-26T08:18:08.186Z,7712.00
2017-08-26T08:18:08.787Z,7712.00
2017-08-26T08:18:09.389Z,7712.00
2017-08-26T08:18:09.985Z,7712.00
2017-08-26T08:19:04.466Z,7684.00
2017-08-26T08:19:05.062Z,7684.00
2017-08-26T08:19:05.662Z,7688.00
2017-08-26T08:19:06.273Z,7684.00
2017-08-26T08:19:06.865Z,7684.00
2017-08-26T08:19:07.460Z,7680.00
2017-08-26T08:19:08.061Z,7680.00
2017-08-26T08:19:08.663Z,7684.00
2017-08-26T08:20:02.143Z,7708.00
2017-08-26T08:20:02.712Z,7704.00
2017-08-26T08:20:03.311Z,7704.00
2017-08-26T08:20:03.915Z,7704.00
2017-08-26T08:20:04.517Z,7704.00
2017-08-26T08:20:05.114Z,7704.00
2017-08-26T08:20:05.713Z,7704.00
2017-08-26T08:20:06.310Z,7704.00
2017-08-26T08:20:59.773Z,7676.00
2017-08-26T08:21:00.369Z,7668.00
2017-08-26T08:21:00.969Z,7672.00
2017-08-26T08:21:01.563Z,7668.00
2017-08-26T08:21:02.163Z,7672.00
2017-08-26T08:21:02.764Z,7668.00
2017-08-26T08:21:03.364Z,7668.00
2017-08-26T08:21:03.966Z,7668.00
2017-08-26T08:21:57.420Z,7648.00
2017-08-26T08:21:58.018Z,7644.00
2017-08-26T08:21:58.613Z,7644.00
2017-08-26T08:21:59.216Z,7644.00
2017-08-26T08:21:59.813Z,7644.00
2017-08-26T08:22:00.419Z,7640.00
2017-08-26T08:22:01.013Z,7640.00
2017-08-26T08:22:01.615Z,7644.00
2017-08-26T08:22:55.069Z,7600.00
2017-08-26T08:22:55.668Z,7600.00
2017-08-26T08:22:56.269Z,7600.00
2017-08-26T08:22:56.864Z,7600.00
2017-08-26T08:22:57.467Z,7596.00
2017-08-26T08:22:58.064Z,7596.00
2017-08-26T08:22:58.664Z,7596.00
2017-08-26T08:22:59.268Z,7596.00
2017-08-26T08:23:53.746Z,7576.00
2017-08-26T08:23:54.341Z,7576.00
2017-08-26T08:23:54.943Z,7580.00
2017-08-26T08:23:55.547Z,7576.00
2017-08-26T08:23:56.143Z,7576.00
2017-08-26T08:23:56.741Z,7576.00
2017-08-26T08:23:57.337Z,7572.00
2017-08-26T08:23:57.937Z,7572.00
2017-08-26T08:24:51.400Z,7520.00
2017-08-26T08:24:51.992Z,7516.00
2017-08-26T08:24:52.600Z,7516.00
2017-08-26T08:24:53.200Z,7520.00
2017-08-26T08:24:53.799Z,7516.00
2017-08-26T08:24:54.396Z,7516.00
2017-08-26T08:24:54.996Z,7516.00
2017-08-26T08:24:55.597Z,7520.00
2017-08-26T08:25:50.103Z,7272.00
2017-08-26T08:25:50.669Z,7484.00
2017-08-26T08:25:51.271Z,7496.00
2017-08-26T08:25:51.870Z,7492.00
2017-08-26T08:25:52.467Z,7496.00
2017-08-26T08:25:53.071Z,7492.00
2017-08-26T08:25:53.666Z,7492.00
2017-08-26T08:25:54.274Z,7492.00
2017-08-26T08:26:47.732Z,7444.00
2017-08-26T08:26:48.326Z,7444.00
2017-08-26T08:26:48.925Z,7428.00
2017-08-26T08:26:49.523Z,7420.00
2017-08-26T08:26:50.126Z,7420.00
2017-08-26T08:26:50.725Z,7420.00
2017-08-26T08:26:51.325Z,7448.00
2017-08-26T08:26:51.923Z,7344.00
2017-08-26T08:27:46.403Z,7468.00
2017-08-26T08:27:46.997Z,7468.00
2017-08-26T08:27:47.604Z,7464.00
2017-08-26T08:27:48.196Z,7464.00
2017-08-26T08:27:48.799Z,7468.00
2017-08-26T08:27:49.392Z,7468.00
2017-08-26T08:27:49.994Z,7472.00
2017-08-26T08:27:50.592Z,7468.00
2017-08-26T08:28:44.053Z,7452.00
2017-08-26T08:28:44.652Z,7444.00
2017-08-26T08:28:45.250Z,7432.00
2017-08-26T08:28:45.855Z,7404.00
2017-08-26T08:28:46.449Z,7424.00
2017-08-26T08:28:47.051Z,7364.00
2017-08-26T08:28:47.655Z,7420.00
2017-08-26T08:28:48.254Z,7416.00
2017-08-26T08:29:41.705Z,7720.00
2017-08-26T08:29:42.304Z,7720.00
2017-08-26T08:29:42.900Z,7732.00
2017-08-26T08:29:43.501Z,7724.00
2017-08-26T08:29:44.098Z,7724.00
2017-08-26T08:29:44.698Z,7728.00
2017-08-26T08:29:45.298Z,7728.00
2017-08-26T08:29:45.900Z,7728.00
2017-08-26T08:30:40.377Z,7968.00
2017-08-26T08:30:40.980Z,7984.00
2017-08-26T08:30:41.578Z,8000.00
2017-08-26T08:30:42.180Z,7996.00
2017-08-26T08:30:42.776Z,8004.00
2017-08-26T08:30:43.376Z,7980.00
2017-08-26T08:30:43.974Z,7944.00
2017-08-26T08:30:44.574Z,7940.00
2017-08-26T08:31:39.081Z,8180.00
2017-08-26T08:31:39.655Z,8184.00
2017-08-26T08:31:40.253Z,8184.00
2017-08-26T08:31:40.854Z,8184.00
2017-08-26T08:31:41.450Z,8184.00
2017-08-26T08:31:42.051Z,8184.00
2017-08-26T08:31:42.655Z,8184.00
2017-08-26T08:31:43.253Z,8184.00
2017-08-26T08:32:36.705Z,8084.00
2017-08-26T08:32:37.303Z,8076.00
2017-08-26T08:32:37.908Z,8072.00
2017-08-26T08:32:38.511Z,8072.00
2017-08-26T08:32:39.105Z,8068.00
2017-08-26T08:32:39.705Z,8068.00
2017-08-26T08:32:40.308Z,8068.00
2017-08-26T08:32:40.906Z,8056.00
2017-08-26T08:33:34.359Z,7960.00
2017-08-26T08:33:34.954Z,7956.00
2017-08-26T08:33:35.561Z,7960.00
2017-08-26T08:33:36.158Z,7960.00
2017-08-26T08:33:36.761Z,7956.00
2017-08-26T08:33:37.358Z,7960.00
2017-08-26T08:33:37.958Z,7960.00
2017-08-26T08:33:38.554Z,7972.00
2017-08-26T08:34:32.011Z,7744.00
2017-08-26T08:34:32.612Z,7804.00
2017-08-26T08:34:33.213Z,7836.00
2017-08-26T08:34:33.812Z,7880.00
2017-08-26T08:34:34.412Z,7900.00
2017-08-26T08:34:35.012Z,7904.00
2017-08-26T08:34:35.614Z,7892.00
2017-08-26T08:34:36.208Z,7868.00
2017-08-26T08:35:29.670Z,7864.00
2017-08-26T08:35:30.262Z,7860.00
2017-08-26T08:35:30.861Z,7824.00
2017-08-26T08:35:31.462Z,7816.00
2017-08-26T08:35:32.057Z,7824.00
2017-08-26T08:35:32.657Z,7824.00
2017-08-26T08:35:33.259Z,7820.00
2017-08-26T08:35:33.859Z,7824.00
2017-08-26T08:36:28.339Z,7612.00
2017-08-26T08:36:28.931Z,7604.00
2017-08-26T08:36:29.532Z,7604.00
2017-08-26T08:36:30.132Z,7672.00
2017-08-26T08:36:30.732Z,7704.00
2017-08-26T08:36:31.332Z,7700.00
2017-08-26T08:36:31.933Z,7760.00
2017-08-26T08:36:32.539Z,7768.00
2017-08-26T08:37:27.037Z,7872.00
2017-08-26T08:37:27.609Z,7892.00
2017-08-26T08:37:28.210Z,7892.00
2017-08-26T08:37:28.808Z,7896.00
2017-08-26T08:37:29.412Z,7872.00
2017-08-26T08:37:30.008Z,7828.00
2017-08-26T08:37:30.611Z,7832.00
2017-08-26T08:37:31.207Z,7812.00
2017-08-26T08:38:25.696Z,7896.00
2017-08-26T08:38:26.288Z,7900.00
2017-08-26T08:38:26.888Z,7896.00
2017-08-26T08:38:27.487Z,7900.00
2017-08-26T08:38:28.092Z,7904.00
2017-08-26T08:38:28.692Z,7904.00
2017-08-26T08:38:29.290Z,7904.00
2017-08-26T08:38:29.886Z,7904.00
2017-08-26T08:39:23.342Z,7908.00
2017-08-26T08:39:23.940Z,7912.00
2017-08-26T08:39:24.539Z,7916.00
2017-08-26T08:39:25.138Z,7916.00
2017-08-26T08:39:25.735Z,7916.00
2017-08-26T08:39:26.340Z,7920.00
2017-08-26T08:39:26.942Z,7920.00
2017-08-26T08:39:27.540Z,7924.00
2017-08-26T08:40:20.995Z,7944.00
2017-08-26T08:40:21.592Z,7944.00
2017-08-26T08:40:22.196Z,7944.00
2017-08-26T08:40:22.792Z,7944.00
2017-08-26T08:40:23.391Z,7944.00
2017-08-26T08:40:23.990Z,7940.00
2017-08-26T08:40:24.589Z,7948.00
2017-08-26T08:40:25.191Z,7952.00
2017-08-26T08:41:19.671Z,7852.00
2017-08-26T08:41:20.262Z,7860.00
2017-08-26T08:41:20.867Z,7832.00
2017-08-26T08:41:21.465Z,7864.00
2017-08-26T08:41:22.068Z,7840.00
2017-08-26T08:41:22.662Z,7836.00
2017-08-26T08:41:23.262Z,7852.00
2017-08-26T08:41:23.868Z,7844.00
2017-08-26T08:42:17.322Z,8056.00
2017-08-26T08:42:17.922Z,8060.00
2017-08-26T08:42:18.514Z,8040.00
2017-08-26T08:42:19.114Z,8056.00
2017-08-26T08:42:19.719Z,8056.00
2017-08-26T08:42:20.318Z,8024.00
2017-08-26T08:42:20.923Z,8036.00
2017-08-26T08:42:21.514Z,8052.00
2017-08-26T08:43:16.026Z,8248.00
2017-08-26T08:43:16.593Z,8248.00
2017-08-26T08:43:17.190Z,8244.00
2017-08-26T08:43:17.793Z,8256.00
2017-08-26T08:43:18.390Z,8268.00
2017-08-26T08:43:18.991Z,8280.00
2017-08-26T08:43:19.592Z,8276.00
2017-08-26T08:43:20.190Z,8280.00
2017-08-26T08:44:13.645Z,8576.00
2017-08-26T08:44:14.246Z,8576.00
2017-08-26T08:44:14.857Z,8584.00
2017-08-26T08:44:15.445Z,8584.00
2017-08-26T08:44:16.045Z,8596.00
2017-08-26T08:44:16.649Z,8596.00
2017-08-26T08:44:17.246Z,8604.00
2017-08-26T08:44:17.848Z,8604.00
2017-08-26T08:45:12.328Z,8936.00
2017-08-26T08:45:12.921Z,8932.00
2017-08-26T08:45:13.521Z,8940.00
2017-08-26T08:45:14.118Z,8948.00
2017-08-26T08:45:14.721Z,8948.00
2017-08-26T08:45:15.319Z,8948.00
2017-08-26T08:45:15.920Z,8948.00
2017-08-26T08:45:16.517Z,8960.00
2017-08-26T08:46:10.996Z,9032.00
2017-08-26T08:46:11.595Z,9036.00
2017-08-26T08:46:12.194Z,9048.00
2017-08-26T08:46:12.793Z,9044.00
2017-08-26T08:46:13.396Z,9040.00
2017-08-26T08:46:13.996Z,9036.00
2017-08-26T08:46:14.597Z,9040.00
2017-08-26T08:46:15.200Z,9048.00
2017-08-26T08:47:08.652Z,8952.00
2017-08-26T08:47:09.249Z,8948.00
2017-08-26T08:47:09.845Z,8944.00
2017-08-26T08:47:10.447Z,8948.00
2017-08-26T08:47:11.048Z,8948.00
2017-08-26T08:47:11.646Z,8948.00
2017-08-26T08:47:12.245Z,8944.00
2017-08-26T08:47:12.845Z,8944.00
2017-08-26T08:48:07.330Z,8612.00
2017-08-26T08:48:07.919Z,8612.00
2017-08-26T08:48:08.523Z,8608.00
2017-08-26T08:48:09.119Z,8600.00
2017-08-26T08:48:09.720Z,8600.00
2017-08-26T08:48:10.323Z,8600.00
2017-08-26T08:48:10.923Z,8592.00
2017-08-26T08:48:11.522Z,8588.00
2017-08-26T09:07:10.751Z,8004.00
2017-08-26T09:07:11.324Z,8000.00
2017-08-26T09:07:11.925Z,8004.00
2017-08-26T09:07:12.521Z,8012.00
2017-08-26T09:07:13.123Z,8008.00
2017-08-26T09:07:13.724Z,8012.00
2017-08-26T09:07:14.324Z,8008.00
2017-08-26T09:07:14.924Z,8012.00
2017-08-26T09:08:08.377Z,8220.00
2017-08-26T09:08:08.975Z,8220.00
2017-08-26T09:08:09.577Z,8220.00
2017-08-26T09:08:10.174Z,8212.00
2017-08-26T09:08:10.778Z,8220.00
2017-08-26T09:08:11.377Z,8220.00
2017-08-26T09:08:11.976Z,8220.00
2017-08-26T09:08:12.581Z,8224.00
2017-08-26T09:09:07.060Z,8292.00
2017-08-26T09:09:07.649Z,8296.00
2017-08-26T09:09:08.252Z,8296.00
2017-08-26T09:09:08.852Z,8296.00
2017-08-26T09:09:09.453Z,8296.00
2017-08-26T09:09:10.056Z,8300.00
2017-08-26T09:09:10.657Z,8300.00
2017-08-26T09:09:11.255Z,8300.00
2017-08-26T09:10:04.714Z,8348.00
2017-08-26T09:10:05.303Z,8340.00
2017-08-26T09:10:05.911Z,8332.00
2017-08-26T09:10:06.505Z,8328.00
2017-08-26T09:10:07.105Z,8324.00
2017-08-26T09:10:07.703Z,8320.00
2017-08-26T09:10:08.305Z,8312.00
2017-08-26T09:10:08.900Z,8308.00
2017-08-26T09:11:03.385Z,8204.00
2017-08-26T09:11:03.979Z,8200.00
2017-08-26T09:11:04.582Z,8208.00
2017-08-26T09:11:05.185Z,8212.00
2017-08-26T09:11:05.782Z,8204.00
2017-08-26T09:11:06.383Z,8196.00
2017-08-26T09:11:06.986Z,8184.00
2017-08-26T09:11:07.587Z,8188.00
2017-08-26T09:12:01.060Z,7912.00
2017-08-26T09:12:01.640Z,7912.00
2017-08-26T09:12:02.238Z,7912.00
2017-08-26T09:12:02.835Z,7912.00
2017-08-26T09:12:03.436Z,7908.00
2017-08-26T09:12:04.035Z,7904.00
2017-08-26T09:12:04.632Z,7904.00
2017-08-26T09:12:05.234Z,7908.00
2017-08-26T09:12:58.693Z,7816.00
2017-08-26T09:12:59.287Z,7816.00
2017-08-26T09:12:59.887Z,7816.00
2017-08-26T09:13:00.486Z,7820.00
2017-08-26T09:13:01.090Z,7816.00
2017-08-26T09:13:01.686Z,7820.00
2017-08-26T09:13:02.283Z,7812.00
2017-08-26T09:13:02.882Z,7816.00
2017-08-26T09:13:57.369Z,7884.00
2017-08-26T09:13:57.962Z,7888.00
2017-08-26T09:13:58.559Z,7892.00
2017-08-26T09:13:59.166Z,7892.00
2017-08-26T09:13:59.762Z,7896.00
2017-08-26T09:14:00.362Z,7900.00
2017-08-26T09:14:00.962Z,7904.00
2017-08-26T09:14:01.579Z,7908.00
2017-08-26T09:14:56.037Z,7960.00
2017-08-26T09:14:56.635Z,7964.00
2017-08-26T09:14:57.238Z,7964.00
2017-08-26T09:14:57.838Z,7968.00
2017-08-26T09:14:58.434Z,7972.00
2017-08-26T09:14:59.037Z,7972.00
2017-08-26T09:14:59.637Z,7976.00
2017-08-26T09:15:00.238Z,7980.00
2017-08-26T09:15:53.692Z,8224.00
2017-08-26T09:15:54.287Z,8228.00
2017-08-26T09:15:54.890Z,8232.00
2017-08-26T09:15:55.494Z,8232.00
2017-08-26T09:15:56.093Z,8236.00
2017-08-26T09:15:56.695Z,8236.00
2017-08-26T09:15:57.294Z,8240.00
2017-08-26T09:15:57.890Z,8240.00
2017-08-26T09:16:51.376Z,8636.00
2017-08-26T09:16:51.946Z,8640.00
2017-08-26T09:16:52.542Z,8648.00
2017-08-26T09:16:53.146Z,8652.00
2017-08-26T09:16:53.738Z,8672.00
2017-08-26T09:16:54.341Z,8668.00
2017-08-26T09:16:54.939Z,8676.00
2017-08-26T09:16:55.540Z,8680.00
2017-08-26T09:17:50.021Z,8940.00
2017-08-26T09:17:50.616Z,8940.00
2017-08-26T09:17:51.217Z,8932.00
2017-08-26T09:17:51.817Z,8936.00
2017-08-26T09:17:52.412Z,8936.00
2017-08-26T09:17:53.018Z,8940.00
2017-08-26T09:17:53.613Z,8940.00
2017-08-26T09:17:54.219Z,8936.00
2017-08-26T09:18:48.698Z,9304.00
2017-08-26T09:18:49.293Z,9304.00
2017-08-26T09:18:49.898Z,9312.00
2017-08-26T09:18:50.496Z,9316.00
2017-08-26T09:18:51.114Z,9316.00
2017-08-26T09:18:51.696Z,9324.00
2017-08-26T09:18:52.297Z,9332.00
2017-08-26T09:18:52.896Z,9332.00
2017-08-26T09:19:48.831Z,9724.00
2017-08-26T09:19:49.432Z,9728.00
2017-08-26T09:19:50.031Z,9736.00
2017-08-26T09:19:50.625Z,9740.00
2017-08-26T09:19:51.225Z,9760.00
2017-08-26T09:19:51.820Z,9772.00
2017-08-26T09:20:57.011Z,9952.00
2017-08-26T09:20:57.603Z,9956.00
2017-08-26T09:20:58.202Z,9952.00
2017-08-26T09:20:58.811Z,9952.00
2017-08-26T09:20:59.399Z,9952.00
2017-08-26T09:20:59.999Z,9952.00
2017-08-26T09:21:00.603Z,9948.00
2017-08-26T09:21:01.202Z,9952.00
2017-08-26T09:21:57.247Z,9848.00
2017-08-26T09:21:57.818Z,9848.00
2017-08-26T09:21:58.418Z,9848.00
2017-08-26T09:21:59.014Z,9844.00
2017-08-26T09:21:59.617Z,9840.00
2017-08-26T09:22:00.217Z,9840.00
2017-08-26T09:22:55.173Z,9752.00
2017-08-26T09:22:55.769Z,9748.00
2017-08-26T09:22:56.368Z,9756.00
2017-08-26T09:22:56.968Z,9756.00
2017-08-26T09:22:57.572Z,9752.00
2017-08-26T09:22:58.172Z,9756.00
2017-08-26T09:22:58.774Z,9756.00
2017-08-26T09:22:59.377Z,9752.00
2017-08-26T09:23:52.833Z,9724.00
2017-08-26T09:23:53.429Z,9724.00
2017-08-26T09:23:54.025Z,9724.00
2017-08-26T09:23:54.630Z,9724.00
2017-08-26T09:23:55.221Z,9724.00
2017-08-26T09:23:55.829Z,9720.00
2017-08-26T09:23:56.426Z,9724.00
2017-08-26T09:23:57.022Z,9724.00
2017-08-26T09:24:51.507Z,9700.00
2017-08-26T09:24:52.103Z,9688.00
2017-08-26T09:24:52.704Z,9680.00
2017-08-26T09:24:53.301Z,9680.00
2017-08-26T09:24:53.900Z,9676.00
2017-08-26T09:24:54.500Z,9680.00
2017-08-26T09:24:55.100Z,9676.00
2017-08-26T09:24:55.699Z,9676.00
2017-08-26T09:25:49.157Z,9544.00
2017-08-26T09:25:49.758Z,9540.00
2017-08-26T09:25:50.357Z,9532.00
2017-08-26T09:25:50.956Z,9532.00
2017-08-26T09:25:51.551Z,9532.00
2017-08-26T09:25:52.149Z,9532.00
2017-08-26T09:25:52.756Z,9528.00
2017-08-26T09:25:53.351Z,9524.00
2017-08-26T09:26:47.833Z,9436.00
2017-08-26T09:26:48.423Z,9440.00
2017-08-26T09:26:49.026Z,9436.00
2017-08-26T09:26:49.627Z,9436.00
2017-08-26T09:26:50.222Z,9436.00
2017-08-26T09:26:50.830Z,9432.00
2017-08-26T09:26:51.439Z,9432.00
2017-08-26T09:26:52.027Z,9436.00
2017-08-26T09:27:45.517Z,9456.00
2017-08-26T09:27:46.082Z,9432.00
2017-08-26T09:27:46.685Z,9428.00
2017-08-26T09:27:47.281Z,9428.00
2017-08-26T09:27:47.878Z,9468.00
2017-08-26T09:27:48.478Z,9516.00
2017-08-26T09:27:49.085Z,9524.00
2017-08-26T09:27:49.685Z,9480.00
2017-08-26T09:28:44.159Z,9420.00
2017-08-26T09:28:44.757Z,9420.00
2017-08-26T09:28:45.350Z,9424.00
2017-08-26T09:28:45.955Z,9424.00
2017-08-26T09:28:46.554Z,9428.00
2017-08-26T09:28:47.154Z,9424.00
2017-08-26T09:28:47.758Z,9432.00
2017-08-26T09:28:48.352Z,9432.00
2017-08-26T09:29:41.807Z,9604.00
2017-08-26T09:29:42.411Z,9600.00
2017-08-26T09:29:43.009Z,9604.00
2017-08-26T09:29:43.610Z,9600.00
2017-08-26T09:29:44.208Z,9600.00
2017-08-26T09:29:44.811Z,9600.00
2017-08-26T09:29:45.414Z,9604.00
2017-08-26T09:29:46.008Z,9600.00
2017-08-26T09:30:39.570Z,9588.00
2017-08-26T09:30:40.167Z,9588.00